West Fairview, Kentucky
Current Conditions -  °F | °C
As of 6:55 PM on Monday 20 Oct 2014 (Local Time) from KDWU Reporting Station
Overcast Overcast  
Wind Chill: 57°   Ceiling: 6000
Heat Index: 57°   Visibility: 10mi
Dew Point: 45°   Wind: 5mph
Humidity: 63%   Direction: 270°W
Pressure: 29.9"   Gusts: NA
Location:  38.4744°N, 82.6532°W
Report Text: KDWU 202255Z AUTO 27004KT 10SM OVC060 14/07 A2990 RMK AO1
Loading
Personal Weather Stations






























Interactive Weather Map
Tropical Storm Tracking
New forecast layout! Learn more

10-Day Weather Forecast

Advertisements
Track Severe Weather on mobile